sensor_id;sensor_type;location;lat;lon;timestamp;P1;durP1;ratioP1;P2;durP2;ratioP2
62679;SDS011;48746;55.578;37.902;2022-10-16T00:05:23;8.68;;;5.15;;
62679;SDS011;48746;55.578;37.902;2022-10-16T00:07:50;8.57;;;4.65;;
62679;SDS011;48746;55.578;37.902;2022-10-16T00:10:16;10.60;;;5.50;;
62679;SDS011;48746;55.578;37.902;2022-10-16T00:12:43;11.80;;;5.30;;
62679;SDS011;48746;55.578;37.902;2022-10-16T00:15:09;11.20;;;5.18;;
62679;SDS011;48746;55.578;37.902;2022-10-16T00:17:36;7.78;;;4.40;;
62679;SDS011;48746;55.578;37.902;2022-10-16T00:20:02;10.98;;;5.10;;
62679;SDS011;48746;55.578;37.902;2022-10-16T00:22:47;15.23;;;5.15;;
62679;SDS011;48746;55.578;37.902;2022-10-16T00:25:14;12.23;;;5.30;;
62679;SDS011;48746;55.578;37.902;2022-10-16T00:27:40;10.05;;;5.22;;
62679;SDS011;48746;55.578;37.902;2022-10-16T00:30:06;9.65;;;5.45;;
62679;SDS011;48746;55.578;37.902;2022-10-16T00:35:40;11.20;;;4.63;;
62679;SDS011;48746;55.578;37.902;2022-10-16T00:38:06;10.30;;;5.15;;
62679;SDS011;48746;55.578;37.902;2022-10-16T00:40:32;10.63;;;5.18;;
62679;SDS011;48746;55.578;37.902;2022-10-16T00:42:58;10.18;;;4.68;;
62679;SDS011;48746;55.578;37.902;2022-10-16T00:45:24;9.52;;;4.75;;
62679;SDS011;48746;55.578;37.902;2022-10-16T00:47:51;9.48;;;4.97;;
62679;SDS011;48746;55.578;37.902;2022-10-16T00:50:19;9.07;;;5.15;;
62679;SDS011;48746;55.578;37.902;2022-10-16T00:52:53;13.00;;;5.53;;
62679;SDS011;48746;55.578;37.902;2022-10-16T00:55:19;10.75;;;5.18;;
62679;SDS011;48746;55.578;37.902;2022-10-16T00:57:46;15.68;;;4.95;;
62679;SDS011;48746;55.578;37.902;2022-10-16T01:00:14;13.00;;;5.40;;
62679;SDS011;48746;55.578;37.902;2022-10-16T01:05:50;10.73;;;5.18;;
62679;SDS011;48746;55.578;37.902;2022-10-16T01:08:44;7.75;;;5.15;;
62679;SDS011;48746;55.578;37.902;2022-10-16T01:14:02;8.98;;;5.00;;
62679;SDS011;48746;55.578;37.902;2022-10-16T01:16:38;12.27;;;5.13;;
62679;SDS011;48746;55.578;37.902;2022-10-16T01:19:18;9.30;;;5.25;;
62679;SDS011;48746;55.578;37.902;2022-10-16T01:21:55;15.27;;;5.68;;
62679;SDS011;48746;55.578;37.902;2022-10-16T01:27:03;9.13;;;5.68;;
62679;SDS011;48746;55.578;37.902;2022-10-16T01:35:13;14.32;;;5.53;;
62679;SDS011;48746;55.578;37.902;2022-10-16T01:37:43;10.18;;;5.45;;
62679;SDS011;48746;55.578;37.902;2022-10-16T01:40:13;13.90;;;5.47;;
62679;SDS011;48746;55.578;37.902;2022-10-16T01:42:42;15.00;;;6.32;;
62679;SDS011;48746;55.578;37.902;2022-10-16T01:45:12;14.10;;;5.95;;
62679;SDS011;48746;55.578;37.902;2022-10-16T01:47:40;12.82;;;5.40;;
62679;SDS011;48746;55.578;37.902;2022-10-16T01:50:07;11.43;;;5.60;;
62679;SDS011;48746;55.578;37.902;2022-10-16T01:52:37;10.75;;;5.47;;
62679;SDS011;48746;55.578;37.902;2022-10-16T01:55:06;14.07;;;5.20;;
62679;SDS011;48746;55.578;37.902;2022-10-16T01:57:34;10.95;;;5.47;;
62679;SDS011;48746;55.578;37.902;2022-10-16T02:00:05;12.38;;;5.22;;
62679;SDS011;48746;55.578;37.902;2022-10-16T02:02:41;10.77;;;4.82;;
62679;SDS011;48746;55.578;37.902;2022-10-16T02:05:11;9.88;;;5.13;;
62679;SDS011;48746;55.578;37.902;2022-10-16T02:07:38;9.43;;;4.90;;
62679;SDS011;48746;55.578;37.902;2022-10-16T02:10:04;8.65;;;4.70;;
62679;SDS011;48746;55.578;37.902;2022-10-16T02:12:32;11.57;;;5.95;;
62679;SDS011;48746;55.578;37.902;2022-10-16T02:14:59;11.52;;;5.70;;
62679;SDS011;48746;55.578;37.902;2022-10-16T02:17:26;10.88;;;4.63;;
62679;SDS011;48746;55.578;37.902;2022-10-16T02:19:53;12.25;;;5.13;;
62679;SDS011;48746;55.578;37.902;2022-10-16T02:22:22;13.48;;;5.47;;
62679;SDS011;48746;55.578;37.902;2022-10-16T02:24:56;11.80;;;5.57;;
62679;SDS011;48746;55.578;37.902;2022-10-16T02:33:02;9.00;;;4.90;;
62679;SDS011;48746;55.578;37.902;2022-10-16T02:35:31;8.75;;;4.80;;
62679;SDS011;48746;55.578;37.902;2022-10-16T02:37:58;13.82;;;4.75;;
62679;SDS011;48746;55.578;37.902;2022-10-16T02:40:24;12.88;;;5.20;;
62679;SDS011;48746;55.578;37.902;2022-10-16T02:42:52;11.40;;;5.28;;
62679;SDS011;48746;55.578;37.902;2022-10-16T02:45:19;10.93;;;5.13;;
62679;SDS011;48746;55.578;37.902;2022-10-16T02:47:45;9.90;;;4.95;;
62679;SDS011;48746;55.578;37.902;2022-10-16T02:50:12;10.45;;;4.70;;
62679;SDS011;48746;55.578;37.902;2022-10-16T02:52:38;8.00;;;5.05;;
62679;SDS011;48746;55.578;37.902;2022-10-16T02:55:04;11.43;;;5.20;;
62679;SDS011;48746;55.578;37.902;2022-10-16T02:57:31;12.88;;;5.50;;
62679;SDS011;48746;55.578;37.902;2022-10-16T02:59:57;13.40;;;6.13;;
62679;SDS011;48746;55.578;37.902;2022-10-16T03:05:30;11.65;;;5.57;;
62679;SDS011;48746;55.578;37.902;2022-10-16T03:07:57;11.40;;;5.78;;
62679;SDS011;48746;55.578;37.902;2022-10-16T03:10:25;16.38;;;5.88;;
62679;SDS011;48746;55.578;37.902;2022-10-16T03:12:52;11.30;;;5.43;;
62679;SDS011;48746;55.578;37.902;2022-10-16T03:15:18;9.60;;;4.82;;
62679;SDS011;48746;55.578;37.902;2022-10-16T03:17:45;9.95;;;5.10;;
62679;SDS011;48746;55.578;37.902;2022-10-16T03:20:11;11.52;;;5.32;;
62679;SDS011;48746;55.578;37.902;2022-10-16T03:22:37;10.77;;;5.00;;
62679;SDS011;48746;55.578;37.902;2022-10-16T03:25:04;9.05;;;4.88;;
62679;SDS011;48746;55.578;37.902;2022-10-16T03:27:30;14.57;;;5.47;;
62679;SDS011;48746;55.578;37.902;2022-10-16T03:29:58;12.52;;;5.72;;
62679;SDS011;48746;55.578;37.902;2022-10-16T03:35:31;9.77;;;4.78;;
62679;SDS011;48746;55.578;37.902;2022-10-16T03:37:58;13.10;;;5.22;;
62679;SDS011;48746;55.578;37.902;2022-10-16T03:40:24;12.68;;;5.18;;
62679;SDS011;48746;55.578;37.902;2022-10-16T03:42:50;15.25;;;5.10;;
62679;SDS011;48746;55.578;37.902;2022-10-16T03:45:17;10.18;;;5.28;;
62679;SDS011;48746;55.578;37.902;2022-10-16T03:47:43;11.80;;;5.25;;
62679;SDS011;48746;55.578;37.902;2022-10-16T03:50:09;9.43;;;4.68;;
62679;SDS011;48746;55.578;37.902;2022-10-16T03:52:35;14.75;;;5.25;;
62679;SDS011;48746;55.578;37.902;2022-10-16T03:55:01;11.73;;;5.60;;
62679;SDS011;48746;55.578;37.902;2022-10-16T03:57:28;10.30;;;5.82;;
62679;SDS011;48746;55.578;37.902;2022-10-16T03:59:54;13.45;;;6.00;;
62679;SDS011;48746;55.578;37.902;2022-10-16T04:05:27;16.77;;;5.95;;
62679;SDS011;48746;55.578;37.902;2022-10-16T04:07:53;11.57;;;5.78;;
62679;SDS011;48746;55.578;37.902;2022-10-16T04:10:20;15.13;;;5.75;;
62679;SDS011;48746;55.578;37.902;2022-10-16T04:12:46;16.83;;;6.20;;
62679;SDS011;48746;55.578;37.902;2022-10-16T04:15:13;14.57;;;6.47;;
62679;SDS011;48746;55.578;37.902;2022-10-16T04:17:39;19.83;;;6.35;;
62679;SDS011;48746;55.578;37.902;2022-10-16T04:20:06;13.07;;;5.90;;
62679;SDS011;48746;55.578;37.902;2022-10-16T04:25:39;16.73;;;6.50;;
62679;SDS011;48746;55.578;37.902;2022-10-16T04:28:06;13.98;;;6.50;;
62679;SDS011;48746;55.578;37.902;2022-10-16T04:30:32;13.73;;;6.63;;
62679;SDS011;48746;55.578;37.902;2022-10-16T04:32:59;11.88;;;6.80;;
62679;SDS011;48746;55.578;37.902;2022-10-16T04:35:25;17.55;;;6.88;;
62679;SDS011;48746;55.578;37.902;2022-10-16T04:37:51;11.65;;;6.43;;
62679;SDS011;48746;55.578;37.902;2022-10-16T04:40:17;16.00;;;7.60;;
62679;SDS011;48746;55.578;37.902;2022-10-16T04:42:44;22.75;;;7.18;;
62679;SDS011;48746;55.578;37.902;2022-10-16T04:45:10;17.58;;;6.32;;
62679;SDS011;48746;55.578;37.902;2022-10-16T04:47:36;17.58;;;7.00;;
62679;SDS011;48746;55.578;37.902;2022-10-16T04:50:02;14.85;;;5.97;;
62679;SDS011;48746;55.578;37.902;2022-10-16T04:55:35;22.38;;;7.38;;
62679;SDS011;48746;55.578;37.902;2022-10-16T04:58:02;16.35;;;7.07;;
62679;SDS011;48746;55.578;37.902;2022-10-16T05:00:29;26.48;;;7.75;;
62679;SDS011;48746;55.578;37.902;2022-10-16T05:02:55;22.60;;;7.25;;
62679;SDS011;48746;55.578;37.902;2022-10-16T05:05:22;10.13;;;6.60;;
62679;SDS011;48746;55.578;37.902;2022-10-16T05:07:48;20.38;;;7.82;;
62679;SDS011;48746;55.578;37.902;2022-10-16T05:10:15;16.65;;;7.47;;
62679;SDS011;48746;55.578;37.902;2022-10-16T05:12:42;23.30;;;7.88;;
62679;SDS011;48746;55.578;37.902;2022-10-16T05:15:08;16.35;;;7.43;;
62679;SDS011;48746;55.578;37.902;2022-10-16T05:17:35;18.10;;;7.75;;
62679;SDS011;48746;55.578;37.902;2022-10-16T05:20:01;17.17;;;7.75;;
62679;SDS011;48746;55.578;37.902;2022-10-16T05:25:36;17.38;;;7.80;;
62679;SDS011;48746;55.578;37.902;2022-10-16T05:28:02;14.63;;;7.70;;
62679;SDS011;48746;55.578;37.902;2022-10-16T05:30:29;18.00;;;8.57;;
62679;SDS011;48746;55.578;37.902;2022-10-16T05:32:55;19.65;;;8.30;;
62679;SDS011;48746;55.578;37.902;2022-10-16T05:35:21;21.73;;;7.97;;
62679;SDS011;48746;55.578;37.902;2022-10-16T05:37:47;13.80;;;7.32;;
62679;SDS011;48746;55.578;37.902;2022-10-16T05:40:14;17.55;;;7.30;;
62679;SDS011;48746;55.578;37.902;2022-10-16T05:42:40;17.00;;;6.95;;
62679;SDS011;48746;55.578;37.902;2022-10-16T05:45:08;15.30;;;6.82;;
62679;SDS011;48746;55.578;37.902;2022-10-16T05:47:35;16.45;;;6.57;;
62679;SDS011;48746;55.578;37.902;2022-10-16T05:50:02;17.02;;;5.82;;
62679;SDS011;48746;55.578;37.902;2022-10-16T05:55:36;16.27;;;6.13;;
62679;SDS011;48746;55.578;37.902;2022-10-16T05:58:02;13.63;;;6.70;;
62679;SDS011;48746;55.578;37.902;2022-10-16T06:00:28;15.38;;;6.10;;
62679;SDS011;48746;55.578;37.902;2022-10-16T06:02:54;12.70;;;5.60;;
62679;SDS011;48746;55.578;37.902;2022-10-16T06:05:20;11.48;;;5.68;;
62679;SDS011;48746;55.578;37.902;2022-10-16T06:07:46;9.52;;;5.03;;
62679;SDS011;48746;55.578;37.902;2022-10-16T06:10:13;9.23;;;5.30;;
62679;SDS011;48746;55.578;37.902;2022-10-16T06:12:39;11.55;;;5.20;;
62679;SDS011;48746;55.578;37.902;2022-10-16T06:15:05;15.18;;;5.00;;
62679;SDS011;48746;55.578;37.902;2022-10-16T06:17:32;14.65;;;5.22;;
62679;SDS011;48746;55.578;37.902;2022-10-16T06:19:58;9.75;;;4.97;;
62679;SDS011;48746;55.578;37.902;2022-10-16T06:25:31;8.35;;;4.60;;
62679;SDS011;48746;55.578;37.902;2022-10-16T06:27:57;8.38;;;4.68;;
62679;SDS011;48746;55.578;37.902;2022-10-16T06:30:24;18.77;;;5.05;;
62679;SDS011;48746;55.578;37.902;2022-10-16T06:32:50;16.63;;;4.85;;
62679;SDS011;48746;55.578;37.902;2022-10-16T06:35:16;15.60;;;4.95;;
62679;SDS011;48746;55.578;37.902;2022-10-16T06:37:43;8.35;;;5.05;;
62679;SDS011;48746;55.578;37.902;2022-10-16T06:40:09;13.75;;;4.95;;
62679;SDS011;48746;55.578;37.902;2022-10-16T06:42:35;8.07;;;5.07;;
62679;SDS011;48746;55.578;37.902;2022-10-16T06:45:01;14.43;;;5.00;;
62679;SDS011;48746;55.578;37.902;2022-10-16T06:47:29;8.43;;;5.45;;
62679;SDS011;48746;55.578;37.902;2022-10-16T06:49:55;10.23;;;4.53;;
62679;SDS011;48746;55.578;37.902;2022-10-16T06:55:25;9.70;;;4.93;;
62679;SDS011;48746;55.578;37.902;2022-10-16T06:57:57;14.73;;;5.10;;
62679;SDS011;48746;55.578;37.902;2022-10-16T07:00:24;14.80;;;6.03;;
62679;SDS011;48746;55.578;37.902;2022-10-16T07:02:50;14.88;;;5.47;;
62679;SDS011;48746;55.578;37.902;2022-10-16T07:05:16;17.70;;;5.65;;
62679;SDS011;48746;55.578;37.902;2022-10-16T07:07:42;11.98;;;6.22;;
62679;SDS011;48746;55.578;37.902;2022-10-16T07:10:08;13.68;;;5.65;;
62679;SDS011;48746;55.578;37.902;2022-10-16T07:12:34;11.68;;;5.78;;
62679;SDS011;48746;55.578;37.902;2022-10-16T07:15:00;11.52;;;5.40;;
62679;SDS011;48746;55.578;37.902;2022-10-16T07:17:28;11.23;;;5.50;;
62679;SDS011;48746;55.578;37.902;2022-10-16T07:19:55;10.90;;;4.70;;
62679;SDS011;48746;55.578;37.902;2022-10-16T07:25:27;11.07;;;4.95;;
62679;SDS011;48746;55.578;37.902;2022-10-16T07:27:53;7.45;;;4.28;;
62679;SDS011;48746;55.578;37.902;2022-10-16T07:30:22;10.02;;;5.28;;
62679;SDS011;48746;55.578;37.902;2022-10-16T07:32:48;11.13;;;5.30;;
62679;SDS011;48746;55.578;37.902;2022-10-16T07:35:15;10.38;;;5.22;;
62679;SDS011;48746;55.578;37.902;2022-10-16T07:37:44;10.05;;;5.35;;
62679;SDS011;48746;55.578;37.902;2022-10-16T07:40:11;12.63;;;5.80;;
62679;SDS011;48746;55.578;37.902;2022-10-16T07:42:37;9.82;;;5.10;;
62679;SDS011;48746;55.578;37.902;2022-10-16T07:45:04;8.95;;;4.55;;
62679;SDS011;48746;55.578;37.902;2022-10-16T07:47:30;13.85;;;4.72;;
62679;SDS011;48746;55.578;37.902;2022-10-16T07:49:57;11.65;;;5.45;;
62679;SDS011;48746;55.578;37.902;2022-10-16T07:55:31;9.07;;;4.60;;
62679;SDS011;48746;55.578;37.902;2022-10-16T07:57:57;11.63;;;3.95;;
62679;SDS011;48746;55.578;37.902;2022-10-16T08:00:23;10.95;;;4.43;;
62679;SDS011;48746;55.578;37.902;2022-10-16T08:02:50;14.75;;;5.30;;
62679;SDS011;48746;55.578;37.902;2022-10-16T08:05:16;9.65;;;3.97;;
62679;SDS011;48746;55.578;37.902;2022-10-16T08:07:42;12.60;;;4.03;;
62679;SDS011;48746;55.578;37.902;2022-10-16T08:10:14;13.60;;;4.78;;
62679;SDS011;48746;55.578;37.902;2022-10-16T08:12:42;10.07;;;3.80;;
62679;SDS011;48746;55.578;37.902;2022-10-16T08:15:09;10.68;;;4.60;;
62679;SDS011;48746;55.578;37.902;2022-10-16T08:17:35;8.35;;;4.38;;
62679;SDS011;48746;55.578;37.902;2022-10-16T08:20:02;13.40;;;4.40;;
62679;SDS011;48746;55.578;37.902;2022-10-16T08:25:35;9.95;;;4.50;;
62679;SDS011;48746;55.578;37.902;2022-10-16T08:28:08;11.98;;;6.65;;
62679;SDS011;48746;55.578;37.902;2022-10-16T08:30:38;10.88;;;4.80;;
62679;SDS011;48746;55.578;37.902;2022-10-16T08:33:05;8.15;;;4.00;;
62679;SDS011;48746;55.578;37.902;2022-10-16T08:35:32;14.35;;;5.07;;
62679;SDS011;48746;55.578;37.902;2022-10-16T08:37:58;7.38;;;3.83;;
62679;SDS011;48746;55.578;37.902;2022-10-16T08:40:25;11.60;;;4.30;;
62679;SDS011;48746;55.578;37.902;2022-10-16T08:46:04;11.63;;;4.30;;
62679;SDS011;48746;55.578;37.902;2022-10-16T08:51:07;18.35;;;4.68;;
62679;SDS011;48746;55.578;37.902;2022-10-16T08:53:43;9.93;;;3.80;;
62679;SDS011;48746;55.578;37.902;2022-10-16T08:56:12;11.15;;;4.28;;
62679;SDS011;48746;55.578;37.902;2022-10-16T08:58:39;12.77;;;4.80;;
62679;SDS011;48746;55.578;37.902;2022-10-16T09:01:12;16.45;;;4.47;;
62679;SDS011;48746;55.578;37.902;2022-10-16T09:06:37;13.80;;;4.25;;
62679;SDS011;48746;55.578;37.902;2022-10-16T09:17:44;7.90;;;3.63;;
62679;SDS011;48746;55.578;37.902;2022-10-16T09:20:22;9.60;;;3.65;;
62679;SDS011;48746;55.578;37.902;2022-10-16T09:23:22;12.23;;;4.03;;
62679;SDS011;48746;55.578;37.902;2022-10-16T09:25:54;14.63;;;3.85;;
62679;SDS011;48746;55.578;37.902;2022-10-16T09:28:21;6.57;;;3.17;;
62679;SDS011;48746;55.578;37.902;2022-10-16T09:30:51;16.33;;;5.10;;
62679;SDS011;48746;55.578;37.902;2022-10-16T09:33:18;8.18;;;3.72;;
62679;SDS011;48746;55.578;37.902;2022-10-16T09:35:50;9.85;;;3.45;;
62679;SDS011;48746;55.578;37.902;2022-10-16T09:38:21;6.68;;;3.70;;
62679;SDS011;48746;55.578;37.902;2022-10-16T09:40:51;7.47;;;3.60;;
62679;SDS011;48746;55.578;37.902;2022-10-16T09:48:50;7.15;;;3.92;;
62679;SDS011;48746;55.578;37.902;2022-10-16T09:53:55;5.85;;;3.15;;
62679;SDS011;48746;55.578;37.902;2022-10-16T09:56:25;6.90;;;3.17;;
62679;SDS011;48746;55.578;37.902;2022-10-16T09:58:55;9.32;;;3.17;;
62679;SDS011;48746;55.578;37.902;2022-10-16T10:01:30;8.43;;;3.42;;
62679;SDS011;48746;55.578;37.902;2022-10-16T10:04:01;11.18;;;3.55;;
62679;SDS011;48746;55.578;37.902;2022-10-16T10:06:29;5.78;;;2.90;;
62679;SDS011;48746;55.578;37.902;2022-10-16T10:09:21;9.40;;;3.50;;
62679;SDS011;48746;55.578;37.902;2022-10-16T10:14:21;14.10;;;4.90;;
62679;SDS011;48746;55.578;37.902;2022-10-16T10:17:01;5.40;;;2.97;;
62679;SDS011;48746;55.578;37.902;2022-10-16T10:19:36;6.93;;;3.00;;
62679;SDS011;48746;55.578;37.902;2022-10-16T10:30:24;7.35;;;2.85;;
62679;SDS011;48746;55.578;37.902;2022-10-16T10:33:12;12.88;;;2.92;;
62679;SDS011;48746;55.578;37.902;2022-10-16T10:46:56;8.55;;;2.95;;
62679;SDS011;48746;55.578;37.902;2022-10-16T10:55:03;7.13;;;3.65;;
62679;SDS011;48746;55.578;37.902;2022-10-16T11:05:59;6.68;;;2.65;;
62679;SDS011;48746;55.578;37.902;2022-10-16T11:08:31;7.40;;;2.88;;
62679;SDS011;48746;55.578;37.902;2022-10-16T11:16:39;6.20;;;2.50;;
62679;SDS011;48746;55.578;37.902;2022-10-16T11:19:43;8.45;;;3.53;;
62679;SDS011;48746;55.578;37.902;2022-10-16T11:25:21;6.78;;;2.28;;
62679;SDS011;48746;55.578;37.902;2022-10-16T11:27:52;7.70;;;3.60;;
62679;SDS011;48746;55.578;37.902;2022-10-16T11:30:28;4.53;;;2.47;;
62679;SDS011;48746;55.578;37.902;2022-10-16T11:35:42;13.75;;;4.10;;
62679;SDS011;48746;55.578;37.902;2022-10-16T11:38:39;12.18;;;5.28;;
62679;SDS011;48746;55.578;37.902;2022-10-16T11:41:19;10.73;;;3.80;;
62679;SDS011;48746;55.578;37.902;2022-10-16T11:44:19;7.30;;;2.90;;
62679;SDS011;48746;55.578;37.902;2022-10-16T11:47:19;12.90;;;4.85;;
62679;SDS011;48746;55.578;37.902;2022-10-16T11:50:39;6.68;;;3.55;;
62679;SDS011;48746;55.578;37.902;2022-10-16T11:53:01;12.30;;;5.57;;
62679;SDS011;48746;55.578;37.902;2022-10-16T11:55:31;9.90;;;3.80;;
62679;SDS011;48746;55.578;37.902;2022-10-16T12:00:35;5.05;;;2.47;;
62679;SDS011;48746;55.578;37.902;2022-10-16T12:03:26;6.07;;;3.20;;
62679;SDS011;48746;55.578;37.902;2022-10-16T12:06:04;3.65;;;2.20;;
62679;SDS011;48746;55.578;37.902;2022-10-16T12:08:37;6.30;;;2.88;;
62679;SDS011;48746;55.578;37.902;2022-10-16T12:16:37;5.85;;;3.15;;
62679;SDS011;48746;55.578;37.902;2022-10-16T12:19:29;19.80;;;3.80;;
62679;SDS011;48746;55.578;37.902;2022-10-16T12:25:03;7.32;;;3.15;;
62679;SDS011;48746;55.578;37.902;2022-10-16T12:27:32;12.27;;;4.57;;
62679;SDS011;48746;55.578;37.902;2022-10-16T12:30:00;7.97;;;2.83;;
62679;SDS011;48746;55.578;37.902;2022-10-16T12:34:57;6.10;;;3.88;;
62679;SDS011;48746;55.578;37.902;2022-10-16T12:37:28;6.15;;;2.72;;
62679;SDS011;48746;55.578;37.902;2022-10-16T12:39:57;7.47;;;2.97;;
62679;SDS011;48746;55.578;37.902;2022-10-16T12:45:31;5.28;;;2.60;;
62679;SDS011;48746;55.578;37.902;2022-10-16T12:48:00;5.80;;;3.03;;
62679;SDS011;48746;55.578;37.902;2022-10-16T12:50:30;10.02;;;3.10;;
62679;SDS011;48746;55.578;37.902;2022-10-16T12:52:59;5.88;;;2.80;;
62679;SDS011;48746;55.578;37.902;2022-10-16T12:55:27;4.03;;;2.75;;
62679;SDS011;48746;55.578;37.902;2022-10-16T13:28:32;7.78;;;3.20;;
62679;SDS011;48746;55.578;37.902;2022-10-16T13:34:10;10.45;;;3.53;;
62679;SDS011;48746;55.578;37.902;2022-10-16T13:36:45;8.80;;;2.90;;
62679;SDS011;48746;55.578;37.902;2022-10-16T13:44:52;7.70;;;3.80;;
62679;SDS011;48746;55.578;37.902;2022-10-16T13:47:20;17.42;;;5.03;;
62679;SDS011;48746;55.578;37.902;2022-10-16T13:52:38;9.55;;;3.45;;
62679;SDS011;48746;55.578;37.902;2022-10-16T13:55:10;10.77;;;3.63;;
62679;SDS011;48746;55.578;37.902;2022-10-16T13:57:40;10.95;;;5.13;;
62679;SDS011;48746;55.578;37.902;2022-10-16T14:00:21;7.90;;;3.60;;
62679;SDS011;48746;55.578;37.902;2022-10-16T14:06:00;11.02;;;3.42;;
62679;SDS011;48746;55.578;37.902;2022-10-16T14:08:30;11.48;;;3.72;;
62679;SDS011;48746;55.578;37.902;2022-10-16T14:10:59;22.75;;;5.72;;
62679;SDS011;48746;55.578;37.902;2022-10-16T14:13:37;12.75;;;3.97;;
62679;SDS011;48746;55.578;37.902;2022-10-16T14:16:06;8.52;;;3.63;;
62679;SDS011;48746;55.578;37.902;2022-10-16T14:18:35;13.88;;;4.32;;
62679;SDS011;48746;55.578;37.902;2022-10-16T14:21:07;9.75;;;4.10;;
62679;SDS011;48746;55.578;37.902;2022-10-16T14:23:39;13.52;;;5.78;;
62679;SDS011;48746;55.578;37.902;2022-10-16T14:28:36;14.15;;;5.22;;
62679;SDS011;48746;55.578;37.902;2022-10-16T14:33:47;12.88;;;4.85;;
62679;SDS011;48746;55.578;37.902;2022-10-16T14:36:14;11.95;;;5.53;;
62679;SDS011;48746;55.578;37.902;2022-10-16T14:38:42;15.57;;;6.65;;
62679;SDS011;48746;55.578;37.902;2022-10-16T14:44:12;10.88;;;6.18;;
62679;SDS011;48746;55.578;37.902;2022-10-16T14:46:39;16.55;;;6.65;;
62679;SDS011;48746;55.578;37.902;2022-10-16T14:54:43;14.32;;;6.50;;
62679;SDS011;48746;55.578;37.902;2022-10-16T14:57:17;15.90;;;8.38;;
62679;SDS011;48746;55.578;37.902;2022-10-16T14:59:46;17.83;;;7.47;;
62679;SDS011;48746;55.578;37.902;2022-10-16T15:05:18;12.88;;;6.68;;
62679;SDS011;48746;55.578;37.902;2022-10-16T15:07:44;14.13;;;6.15;;
62679;SDS011;48746;55.578;37.902;2022-10-16T15:10:12;16.35;;;5.90;;
62679;SDS011;48746;55.578;37.902;2022-10-16T15:12:39;13.10;;;5.88;;
62679;SDS011;48746;55.578;37.902;2022-10-16T15:15:29;16.30;;;5.85;;
62679;SDS011;48746;55.578;37.902;2022-10-16T15:17:55;10.82;;;5.28;;
62679;SDS011;48746;55.578;37.902;2022-10-16T15:20:23;14.13;;;6.50;;
62679;SDS011;48746;55.578;37.902;2022-10-16T15:22:50;18.77;;;8.38;;
62679;SDS011;48746;55.578;37.902;2022-10-16T15:27:51;19.02;;;6.93;;
62679;SDS011;48746;55.578;37.902;2022-10-16T15:30:17;15.77;;;6.80;;
62679;SDS011;48746;55.578;37.902;2022-10-16T15:32:43;12.73;;;6.10;;
62679;SDS011;48746;55.578;37.902;2022-10-16T15:35:09;17.80;;;6.70;;
62679;SDS011;48746;55.578;37.902;2022-10-16T15:37:36;12.95;;;6.20;;
62679;SDS011;48746;55.578;37.902;2022-10-16T15:40:02;13.82;;;6.07;;
62679;SDS011;48746;55.578;37.902;2022-10-16T15:42:28;14.05;;;5.82;;
62679;SDS011;48746;55.578;37.902;2022-10-16T15:44:55;12.50;;;7.35;;
62679;SDS011;48746;55.578;37.902;2022-10-16T15:47:21;14.43;;;6.68;;
62679;SDS011;48746;55.578;37.902;2022-10-16T15:49:47;18.67;;;7.78;;
62679;SDS011;48746;55.578;37.902;2022-10-16T15:52:13;18.75;;;8.93;;
62679;SDS011;48746;55.578;37.902;2022-10-16T15:54:39;20.67;;;9.18;;
62679;SDS011;48746;55.578;37.902;2022-10-16T15:57:05;19.75;;;8.50;;
62679;SDS011;48746;55.578;37.902;2022-10-16T15:59:31;18.35;;;8.15;;
62679;SDS011;48746;55.578;37.902;2022-10-16T16:05:04;21.05;;;8.55;;
62679;SDS011;48746;55.578;37.902;2022-10-16T16:07:33;20.25;;;8.65;;
62679;SDS011;48746;55.578;37.902;2022-10-16T16:10:00;20.25;;;7.78;;
62679;SDS011;48746;55.578;37.902;2022-10-16T16:12:26;19.58;;;7.95;;
62679;SDS011;48746;55.578;37.902;2022-10-16T16:14:52;15.27;;;7.05;;
62679;SDS011;48746;55.578;37.902;2022-10-16T16:17:18;17.70;;;7.70;;
62679;SDS011;48746;55.578;37.902;2022-10-16T16:19:45;16.67;;;8.27;;
62679;SDS011;48746;55.578;37.902;2022-10-16T16:22:11;26.70;;;10.45;;
62679;SDS011;48746;55.578;37.902;2022-10-16T16:24:38;15.52;;;8.00;;
62679;SDS011;48746;55.578;37.902;2022-10-16T16:27:05;19.08;;;8.10;;
62679;SDS011;48746;55.578;37.902;2022-10-16T16:29:32;14.18;;;7.45;;
62679;SDS011;48746;55.578;37.902;2022-10-16T16:35:05;21.95;;;8.02;;
62679;SDS011;48746;55.578;37.902;2022-10-16T16:37:31;19.35;;;8.13;;
62679;SDS011;48746;55.578;37.902;2022-10-16T16:39:57;21.52;;;7.85;;
62679;SDS011;48746;55.578;37.902;2022-10-16T16:42:25;14.93;;;7.88;;
62679;SDS011;48746;55.578;37.902;2022-10-16T16:44:52;14.80;;;7.43;;
62679;SDS011;48746;55.578;37.902;2022-10-16T16:47:18;16.13;;;8.35;;
62679;SDS011;48746;55.578;37.902;2022-10-16T16:49:45;17.42;;;7.88;;
62679;SDS011;48746;55.578;37.902;2022-10-16T16:52:12;17.63;;;7.93;;
62679;SDS011;48746;55.578;37.902;2022-10-16T16:54:39;18.88;;;8.20;;
62679;SDS011;48746;55.578;37.902;2022-10-16T16:57:05;14.23;;;7.75;;
62679;SDS011;48746;55.578;37.902;2022-10-16T16:59:31;14.82;;;7.65;;
62679;SDS011;48746;55.578;37.902;2022-10-16T17:05:09;20.35;;;9.25;;
62679;SDS011;48746;55.578;37.902;2022-10-16T17:07:35;18.33;;;7.30;;
62679;SDS011;48746;55.578;37.902;2022-10-16T17:10:02;13.77;;;7.63;;
62679;SDS011;48746;55.578;37.902;2022-10-16T17:12:29;18.55;;;8.85;;
62679;SDS011;48746;55.578;37.902;2022-10-16T17:14:56;27.05;;;8.13;;
62679;SDS011;48746;55.578;37.902;2022-10-16T17:17:22;16.70;;;7.53;;
62679;SDS011;48746;55.578;37.902;2022-10-16T17:19:51;18.80;;;7.30;;
62679;SDS011;48746;55.578;37.902;2022-10-16T17:25:25;15.23;;;7.35;;
62679;SDS011;48746;55.578;37.902;2022-10-16T17:27:51;14.02;;;7.45;;
62679;SDS011;48746;55.578;37.902;2022-10-16T17:30:18;18.67;;;7.75;;
62679;SDS011;48746;55.578;37.902;2022-10-16T17:32:44;20.20;;;7.65;;
62679;SDS011;48746;55.578;37.902;2022-10-16T17:35:10;18.08;;;7.72;;
62679;SDS011;48746;55.578;37.902;2022-10-16T17:37:37;14.80;;;7.75;;
62679;SDS011;48746;55.578;37.902;2022-10-16T17:40:03;20.20;;;8.45;;
62679;SDS011;48746;55.578;37.902;2022-10-16T17:42:29;15.88;;;7.07;;
62679;SDS011;48746;55.578;37.902;2022-10-16T17:44:56;17.02;;;7.32;;
62679;SDS011;48746;55.578;37.902;2022-10-16T17:47:22;13.02;;;8.00;;
62679;SDS011;48746;55.578;37.902;2022-10-16T17:49:48;15.38;;;7.65;;
62679;SDS011;48746;55.578;37.902;2022-10-16T17:55:21;16.17;;;6.78;;
62679;SDS011;48746;55.578;37.902;2022-10-16T17:57:47;14.88;;;7.35;;
62679;SDS011;48746;55.578;37.902;2022-10-16T18:00:14;16.25;;;7.55;;
62679;SDS011;48746;55.578;37.902;2022-10-16T18:02:40;13.95;;;7.18;;
62679;SDS011;48746;55.578;37.902;2022-10-16T18:05:07;23.08;;;7.53;;
62679;SDS011;48746;55.578;37.902;2022-10-16T18:07:34;13.50;;;7.00;;
62679;SDS011;48746;55.578;37.902;2022-10-16T18:10:00;16.13;;;6.68;;
62679;SDS011;48746;55.578;37.902;2022-10-16T18:14:57;19.33;;;8.30;;
62679;SDS011;48746;55.578;37.902;2022-10-16T18:17:23;13.63;;;7.20;;
62679;SDS011;48746;55.578;37.902;2022-10-16T18:19:49;17.33;;;7.28;;
62679;SDS011;48746;55.578;37.902;2022-10-16T18:25:23;16.40;;;7.00;;
62679;SDS011;48746;55.578;37.902;2022-10-16T18:27:49;17.58;;;7.18;;
62679;SDS011;48746;55.578;37.902;2022-10-16T18:30:16;17.83;;;7.60;;
62679;SDS011;48746;55.578;37.902;2022-10-16T18:32:42;13.43;;;7.10;;
62679;SDS011;48746;55.578;37.902;2022-10-16T18:35:08;15.98;;;6.25;;